• Join FlightAware (Why Join?)
  • Login
  • US Flag 
05:32PM EDT


 

Airport Tracker/Info


-or-


 

Live Flight TrackerFlight Track Log ✈ SWA2280 ✈ 27-Apr-2013 ✈ KDEN - KAMA

Flight Track Log - Related Links

Times and Time Zones

All times are in EDT time to prevent confusion due to time zone crossing. See the SWA2280 flight status page for this flight to view local times or setup timezone preferences in your user account.

Time Position Orientation Groundspeed Altitude Reporting Facility
EDT Latitude Longitude Course Direction KTS MPH feet Rate Location/Type
04:44PM 39.8333 -104.7500 162° South 185 213 7,500  Level Denver TRACON
04:45PM 39.8189 -104.8333 257° West 240 276 10,300 3,240 Climbing Denver Center
04:46PM 39.7775 -104.9322 241° Southwest 313 360 14,300 3,600 Climbing Denver Center
04:47PM 39.6772 -104.9183 174° South 354 407 17,800 3,240 Climbing Denver Center
04:49PM 39.5750 -104.8908 168° South 374 430 21,100 2,520 Climbing Denver Center
04:50PM 39.4002 -104.3587 162° South  Level Estimated
04:50PM 39.4572 -104.8578 168° South 402 463 23,000  Level Denver Center
04:51PM 39.3472 -104.8258 167° South 404 465 23,700 1,560 Climbing Denver Center
04:52PM 39.2347 -104.7919 167° South 415 478 26,300 2,340 Climbing Denver Center
04:53PM 39.1158 -104.7578 167° South 434 499 28,600 2,100 Climbing Denver Center
04:54PM 38.9942 -104.7172 165° South 442 509 30,700 1,860 Climbing Denver Center
04:55PM 38.8669 -104.6639 162° South 473 544 32,500 1,860 Climbing Denver Center
04:56PM 38.7439 -104.6119 162° South 463 533 35,000 1,560 Climbing Denver Center
04:57PM 38.5806 -104.5414 161° South 460 529 36,100 960 Climbing Denver Center
04:58PM 38.4572 -104.4936 163° South 458 527 37,000 960 Climbing Denver Center
04:59PM 38.3328 -104.4417 162° South 463 533 38,100 960 Climbing Denver Center
05:00PM 38.2119 -104.3625 153° Southeast 453 521 39,000 1,020 Climbing Denver Center
05:01PM 38.1097 -104.2789 147° Southeast 454 522 40,200 960 Climbing Denver Center
05:02PM 38.0078 -104.1967 148° Southeast 452 520 41,000 360 Climbing Denver Center
05:03PM 37.8872 -104.1011 148° Southeast 456 525 41,000  Level Denver Center
05:04PM 37.7850 -104.0189 148° Southeast 452 520 41,000  Level Denver Center
05:05PM 37.6653 -103.9219 147° Southeast 452 520 41,000  Level Denver Center
05:06PM 37.5600 -103.8369 147° Southeast 455 524 41,000  Level Denver Center
05:07PM 37.4556 -103.7544 148° Southeast 456 525 41,000  Level Denver Center
05:08PM 37.3344 -103.6592 148° Southeast 457 526 41,000  Level Denver Center
05:09PM 37.2825 -103.6183 148° Southeast 460 529 41,000  Level Albuquerque Center
05:10PM 37.1842 -103.5294 144° Southeast 456 525 41,000  Level Albuquerque Center
05:11PM 37.0867 -103.4344 142° Southeast 460 529 41,000  Level Albuquerque Center
05:12PM 36.9725 -103.3250 143° Southeast 462 532 41,000 -300 Level Albuquerque Center
05:13PM 36.8742 -103.2300 142° Southeast 464 534 40,400 -1,800 Descending Albuquerque Center
05:14PM 36.7572 -103.1186 143° Southeast 472 543 37,400 -2,820 Descending Albuquerque Center
05:15PM 36.6581 -103.0239 143° Southeast 468 539 34,700 -2,460 Descending Albuquerque Center
05:16PM 36.5586 -102.9308 143° Southeast 458 527 32,400 -2,100 Descending Albuquerque Center
05:17PM 36.4647 -102.8400 142° Southeast 446 513 30,400 -2,220 Descending Albuquerque Center
05:18PM 36.3536 -102.7350 143° Southeast 425 489 27,900 -2,220 Descending Albuquerque Center
05:19PM 36.2656 -102.6522 143° Southeast 406 467 25,900 -1,920 Descending Albuquerque Center
05:20PM 36.1783 -102.5706 143° Southeast 396 456 24,000 -1,440 Descending Albuquerque Center
05:21PM 36.0978 -102.4847 139° Southeast 386 444 23,000 -1,320 Descending Albuquerque Center
05:22PM 36.0192 -102.4003 139° Southeast 379 436 21,400 -1,740 Descending Albuquerque Center
05:23PM 35.9406 -102.3161 139° Southeast 375 432 19,500 -1,860 Descending Albuquerque Center
05:24PM 35.8631 -102.2347 140° Southeast 369 425 17,700 -1,860 Descending Albuquerque Center
05:25PM 35.7889 -102.1547 139° Southeast 360 414 15,700 -2,100 Descending Albuquerque Center
05:26PM 35.7003 -102.0617 140° Southeast 351 404 13,400 -2,040 Descending Albuquerque Center
05:27PM 35.6289 -101.9872 140° Southeast 341 392 11,600 -1,620 Descending Albuquerque Center
05:28PM 35.5617 -101.9153 139° Southeast 328 377 10,100 -1,320 Descending Albuquerque Center
05:29PM 35.5003 -101.8506 139° Southeast 300 345 9,000 -900 Descending Albuquerque Center
05:30PM 35.4406 -101.7881 140° Southeast 289 333 8,300 -660 Descending Albuquerque Center
05:31PM 35.3903 -101.7328 138° Southeast 266 306 7,700 -840 Descending Albuquerque Center
05:32PM 35.3483 -101.6822 135° Southeast 235 270 6,600 -1,080 Descending Albuquerque Center
05:33PM 35.3039 -101.6411 143° Southeast 212 244 5,500 -1,080 Descending Albuquerque Center
05:34PM 35.2583 -101.6647 203° Southwest 169 194 4,400 -840 Descending Albuquerque Center
05:35PM 35.2339 -101.6961 226° Southwest 146 168 3,800 -600 Descending Albuquerque Center